Flight Track Log - Related Links

Times and Time Zones

All times are in EDT time to prevent confusion due to time zone crossing. See the LOT377 flight status page for this flight to view local times or setup timezone preferences in your user account.

Time Position Orientation Groundspeed Altitude Reporting Facility
EDT Latitude Longitude Course Direction KTS MPH feet Rate Location/Type
Wed 05:14:00 AM 52.0673 20.1239 260° West  Level Estimated
Wed 05:15:00 AM 52.0503 19.9837 259° West  Level Estimated
Wed 05:16:00 AM 52.0331 19.8436 259° West  Level Estimated
Wed 05:17:00 AM 52.0158 19.7037 259° West  Level Estimated
Wed 05:18:00 AM 51.9983 19.5638 259° West  Level Estimated
Wed 05:19:00 AM 51.9807 19.4241 258° West  Level Estimated
Wed 05:20:00 AM 51.9629 19.2844 258° West  Level Estimated
Wed 05:21:00 AM 51.9449 19.1449 258° West  Level Estimated
Wed 05:22:00 AM 51.9267 19.0055 258° West  Level Estimated
Wed 05:23:00 AM 51.9084 18.8662 258° West  Level Estimated
Wed 05:24:00 AM 51.8899 18.7270 258° West  Level Estimated
Wed 05:25:00 AM 51.8713 18.5880 258° West  Level Estimated
Wed 05:26:00 AM 51.8525 18.4490 258° West  Level Estimated
Wed 05:27:00 AM 51.8335 18.3102 258° West  Level Estimated
Wed 05:28:00 AM 51.8144 18.1715 257° West  Level Estimated
Wed 05:29:00 AM 51.7951 18.0329 257° West  Level Estimated
Wed 05:30:00 AM 51.7756 17.8944 257° West  Level Estimated
Wed 05:31:00 AM 51.7560 17.7560 257° West  Level Estimated
Wed 05:32:00 AM 51.7362 17.6178 257° West  Level Estimated
Wed 05:33:00 AM 51.7163 17.4797 257° West  Level Estimated
Wed 05:34:00 AM 51.6962 17.3417 257° West  Level Estimated
Wed 05:35:00 AM 51.6759 17.2038 257° West  Level Estimated
Wed 05:36:00 AM 51.6554 17.0661 257° West  Level Estimated
Wed 05:37:00 AM 51.6349 16.9284 256° West  Level Estimated
Wed 05:38:00 AM 51.6141 16.7910 256° West  Level Estimated
Wed 05:39:00 AM 51.5932 16.6536 256° West  Level Estimated
Wed 05:40:00 AM 51.5721 16.5163 256° West  Level Estimated
Wed 05:41:00 AM 51.5509 16.3792 256° West  Level Estimated
Wed 05:42:00 AM 51.5295 16.2422 256° West  Level Estimated
Wed 05:43:00 AM 51.5080 16.1054 256° West  Level Estimated
Wed 05:44:00 AM 51.4863 15.9686 256° West  Level Estimated
Wed 05:45:00 AM 51.4644 15.8320 256° West  Level Estimated
Wed 05:46:00 AM 51.4423 15.6956 256° West  Level Estimated
Wed 05:47:00 AM 51.4202 15.5592 255° West  Level Estimated
Wed 05:48:00 AM 51.3978 15.4230 255° West  Level Estimated
Wed 05:49:00 AM 51.3753 15.2870 255° West  Level Estimated
Wed 05:50:00 AM 51.3526 15.1510 255° West  Level Estimated
Wed 05:51:00 AM 51.3298 15.0152 255° West  Level Estimated
Wed 05:52:00 AM 51.3069 14.8796 255° West  Level Estimated
Wed 05:53:00 AM 51.2837 14.7441 255° West  Level Estimated
Wed 05:54:00 AM 51.2604 14.6087 255° West  Level Estimated
Wed 05:55:00 AM 51.2370 14.4734 255° West  Level Estimated
Wed 05:56:00 AM 51.2134 14.3383 254° West  Level Estimated
Wed 05:57:00 AM 51.1897 14.2033 254° West  Level Estimated
Wed 05:58:00 AM 51.1657 14.0685 254° West  Level Estimated
Wed 05:59:00 AM 51.1417 13.9338 254° West  Level Estimated
Wed 06:00:00 AM 51.1175 13.7992 254° West  Level Estimated
Wed 06:01:00 AM 51.0931 13.6648 254° West  Level Estimated
Wed 06:02:00 AM 51.0686 13.5306 254° West  Level Estimated
Wed 06:03:00 AM 51.0439 13.3964 254° West  Level Estimated
Wed 06:04:00 AM 51.0190 13.2624 254° West  Level Estimated
Wed 06:05:00 AM 50.9940 13.1286 254° West  Level Estimated
Wed 06:06:00 AM 50.9689 12.9949 253° West  Level Estimated
Wed 06:07:00 AM 50.9436 12.8613 253° West  Level Estimated
Wed 06:08:00 AM 50.9182 12.7279 253° West  Level Estimated
Wed 06:09:00 AM 50.8926 12.5947 253° West  Level Estimated
Wed 06:10:00 AM 50.8668 12.4616 253° West  Level Estimated
Wed 06:11:00 AM 50.8409 12.3286 253° West  Level Estimated
Wed 06:12:00 AM 50.8149 12.1958 253° West  Level Estimated
Wed 06:13:00 AM 50.7887 12.0631 253° West  Level Estimated
Wed 06:14:00 AM 50.7623 11.9306 253° West  Level Estimated
Wed 06:15:00 AM 50.7358 11.7982 252° West  Level Estimated
Wed 06:16:00 AM 50.7092 11.6660 252° West  Level Estimated
Wed 06:17:00 AM 50.6824 11.5339 252° West  Level Estimated
Wed 06:18:00 AM 50.6554 11.4020 252° West  Level Estimated
Wed 06:19:00 AM 50.6283 11.2702 252° West  Level Estimated
Wed 06:20:00 AM 50.6011 11.1386 252° West  Level Estimated
Wed 06:21:00 AM 50.5737 11.0072 252° West  Level Estimated
Wed 06:22:00 AM 50.5461 10.8758 252° West  Level Estimated
Wed 06:23:00 AM 50.5185 10.7447 252° West  Level Estimated
Wed 06:24:00 AM 50.4906 10.6137 252° West  Level Estimated
Wed 06:25:00 AM 50.4626 10.4829 251° West  Level Estimated
Wed 06:26:00 AM 50.4345 10.3522 251° West  Level Estimated
Wed 06:27:00 AM 50.4062 10.2216 251° West  Level Estimated
Wed 06:28:00 AM 50.3778 10.0912 251° West  Level Estimated
Wed 06:29:00 AM 50.3492 9.9610 251° West  Level Estimated
Wed 06:30:00 AM 50.3205 9.8309 251° West  Level Estimated
Wed 06:31:00 AM 50.2917 9.7010 251° West  Level Estimated
Wed 06:32:00 AM 50.2627 9.5713 251° West  Level Estimated
Wed 06:33:00 AM 50.2335 9.4417 251° West  Level Estimated
Wed 06:34:00 AM 50.2042 9.3123 251° West  Level Estimated
Wed 06:35:00 AM 50.1748 9.1830 250° West  Level Estimated
Wed 06:36:00 AM 50.1452 9.0539 250° West  Level Estimated
Wed 06:37:00 AM 50.1155 8.9249 250° West  Level Estimated
Wed 06:38:00 AM 50.0856 8.7962 250° West  Level Estimated
Wed 06:39:00 AM 50.0556 8.6675 250° West  Level Estimated
Wed 06:40:00 AM 50.0264 8.5431 250° West  Level Estimated
Wed 06:41:00 AM 50.0264 8.5431 73° East  Level Estimated
Wed 06:42:00 AM 50.0264 8.5431 73° East  Level Estimated
Wed 06:43:00 AM 50.0264 8.5431 73° East  Level Estimated
Wed 06:44:00 AM 50.0264 8.5431 73° East  Level Estimated
Wed 06:45:00 AM 50.0264 8.5431 73° East  Level Estimated
Wed 06:46:00 AM 50.0264 8.5431 73° East  Level Estimated
Wed 06:47:00 AM 50.0264 8.5431 73° East  Level Estimated
Wed 06:48:00 AM 50.0264 8.5431 73° East  Level Estimated

Login

Don't have an account? Register now (free) for customized features, flight alerts, and more!